Time;durP1;ratioP1;P1;durP2;ratioP2;P2;SDS_P1;SDS_P2;PMS_P1;PMS_P2;Temp;Humidity;BMP_temperature;BMP_pressure;BME280_temperature;BME280_humidity;BME280_pressure;Samples;Min_cycle;Max_cycle;Signal;HPM_P1;HPM_P2
2022/11/12 00:00:25;;;;;;;30.80;13.20;;;5.40;99.90;;;;;;5118096;28;20050;-75
2022/11/12 00:02:51;;;;;;;31.13;12.73;;;5.30;99.90;;;;;;5116476;28;20051;-74
2022/11/12 00:05:17;;;;;;;31.65;12.32;;;5.40;99.90;;;;;;5116179;28;20043;-71
2022/11/12 00:07:43;;;;;;;25.88;12.35;;;5.80;99.90;;;;;;5118103;28;20031;-71
2022/11/12 00:10:09;;;;;;;28.58;12.88;;;5.40;99.90;;;;;;5116224;28;20054;-72
2022/11/12 00:12:34;;;;;;;32.67;13.57;;;5.80;99.90;;;;;;5116422;28;20066;-71
2022/11/12 00:15:00;;;;;;;34.17;12.73;;;5.50;99.90;;;;;;5115671;28;20043;-70
2022/11/12 00:17:26;;;;;;;36.13;13.63;;;5.40;99.90;;;;;;5120835;27;20100;-78
2022/11/12 00:19:52;;;;;;;31.08;12.80;;;5.40;99.90;;;;;;5135454;27;20191;-72
2022/11/12 00:22:19;;;;;;;27.60;12.87;;;5.50;99.90;;;;;;5100805;27;20479;-73
2022/11/12 00:24:45;;;;;;;33.53;13.25;;;5.40;99.90;;;;;;5118868;27;20039;-73
2022/11/12 00:27:11;;;;;;;35.70;13.30;;;5.50;99.90;;;;;;5136449;27;20047;-71
2022/11/12 00:29:37;;;;;;;30.75;13.52;;;5.30;99.90;;;;;;5137469;27;20104;-72
2022/11/12 00:32:05;;;;;;;33.27;13.87;;;5.20;99.90;;;;;;5137301;27;20118;-72
2022/11/12 00:34:31;;;;;;;39.30;14.25;;;5.20;99.90;;;;;;5136186;27;20050;-71
2022/11/12 00:36:57;;;;;;;33.08;13.10;;;5.00;99.90;;;;;;5118712;28;20042;-72
2022/11/12 00:39:23;;;;;;;27.55;12.70;;;5.20;99.90;;;;;;5137101;28;20462;-71
2022/11/12 00:41:49;;;;;;;28.17;12.02;;;5.00;99.90;;;;;;5119359;28;20142;-72
2022/11/12 00:44:15;;;;;;;27.88;12.85;;;5.20;99.90;;;;;;5137330;28;20050;-75
2022/11/12 00:46:40;;;;;;;30.40;12.18;;;5.10;99.90;;;;;;5119027;28;20047;-72
2022/11/12 00:49:06;;;;;;;27.63;12.05;;;5.20;99.90;;;;;;5119137;28;20075;-74
2022/11/12 00:51:32;;;;;;;26.67;11.82;;;5.20;99.90;;;;;;5119439;28;20070;-71
2022/11/12 00:53:58;;;;;;;30.95;12.63;;;5.10;99.90;;;;;;5139526;27;20047;-73
2022/11/12 00:56:23;;;;;;;27.27;12.10;;;4.90;99.90;;;;;;5124537;27;20050;-72
2022/11/12 00:58:53;;;;;;;26.52;12.57;;;5.00;99.90;;;;;;5141138;27;20071;-73
2022/11/12 01:01:19;;;;;;;29.95;12.98;;;5.10;99.90;;;;;;5106348;27;20059;-72
2022/11/12 01:03:45;;;;;;;32.00;13.13;;;5.00;99.90;;;;;;5141251;27;20082;-73
2022/11/12 01:06:14;;;;;;;33.60;13.52;;;5.00;99.90;;;;;;5124083;27;20050;-72
2022/11/12 01:08:41;;;;;;;33.90;14.40;;;5.20;99.90;;;;;;5140900;27;20050;-72
2022/11/12 01:11:10;;;;;;;37.92;15.15;;;5.10;99.90;;;;;;5122815;27;20047;-71
2022/11/12 01:13:37;;;;;;;30.25;14.52;;;5.10;99.90;;;;;;5122477;27;20111;-73
2022/11/12 01:16:07;;;;;;;33.13;14.88;;;5.20;99.90;;;;;;5139866;27;20055;-73
2022/11/12 01:18:33;;;;;;;34.40;15.30;;;5.20;99.90;;;;;;5140139;27;20052;-73
2022/11/12 01:21:01;;;;;;;37.70;15.57;;;5.20;99.90;;;;;;5139632;27;20161;-72
2022/11/12 01:23:27;;;;;;;34.38;14.45;;;5.30;99.90;;;;;;5139949;27;20066;-74
2022/11/12 01:25:54;;;;;;;38.10;15.48;;;5.30;99.90;;;;;;5087940;27;20054;-71
2022/11/12 01:28:20;;;;;;;;;;;6.00;99.90;;;;;;5104779;27;20053;-72
2022/11/12 01:30:46;;;;;;;29.70;14.48;;;5.20;99.90;;;;;;5139516;27;19998;-75
2022/11/12 01:33:11;;;;;;;35.60;14.60;;;5.20;99.90;;;;;;5121401;27;20427;-72
2022/11/12 01:35:37;;;;;;;33.20;14.30;;;5.30;99.90;;;;;;5087779;27;20047;-73
2022/11/12 01:38:03;;;;;;;36.75;14.63;;;5.30;99.90;;;;;;5120100;27;20068;-75
2022/11/12 01:40:28;;;;;;;38.47;15.32;;;5.20;99.90;;;;;;5138791;27;20058;-73
2022/11/12 01:42:56;;;;;;;33.78;14.70;;;5.00;99.90;;;;;;5120504;27;20054;-73
2022/11/12 01:45:22;;;;;;;36.03;15.40;;;5.20;99.90;;;;;;5086517;27;20058;-72
2022/11/12 01:47:50;;;;;;;34.65;15.38;;;5.10;99.90;;;;;;5119604;27;20051;-71
2022/11/12 01:50:21;;;;;;;33.88;14.63;;;5.10;99.90;;;;;;5137998;27;20125;-72
2022/11/12 01:53:07;;;;;;;39.97;14.88;;;5.60;99.90;;;;;;5119713;27;20039;-72
2022/11/12 01:55:36;;;;;;;33.40;14.65;;;5.10;99.90;;;;;;5137695;27;20039;-72
2022/11/12 01:58:09;;;;;;;33.15;15.20;;;5.00;99.90;;;;;;5137114;27;20172;-75
2022/11/12 02:00:35;;;;;;;34.08;15.68;;;5.10;99.90;;;;;;5118647;27;20047;-72
2022/11/12 02:03:06;;;;;;;39.65;16.23;;;5.10;99.90;;;;;;5137098;27;20043;-74
2022/11/12 02:05:33;;;;;;;37.20;14.57;;;5.20;99.90;;;;;;5137097;27;20050;-73
2022/11/12 02:08:00;;;;;;;31.73;14.10;;;5.00;99.90;;;;;;5136748;27;20062;-71
2022/11/12 02:10:27;;;;;;;37.35;15.20;;;5.00;99.90;;;;;;5101719;27;20284;-71
2022/11/12 02:15:39;;;;;;;31.65;12.88;;;4.80;99.90;;;;;;5119229;27;20058;-72
2022/11/12 02:18:06;;;;;;;34.33;13.77;;;4.80;99.90;;;;;;5118288;28;20062;-72
2022/11/12 02:20:37;;;;;;;33.90;14.05;;;4.90;99.90;;;;;;5118269;28;20051;-72
2022/11/12 02:23:04;;;;;;;33.50;13.95;;;4.90;99.90;;;;;;5118813;28;20476;-72
2022/11/12 02:25:30;;;;;;;;;;;4.70;99.90;;;;;;5101818;28;20083;-73
2022/11/12 02:27:58;;;;;;;27.83;12.45;;;4.80;99.90;;;;;;5118636;28;19926;-71
2022/11/12 02:30:36;;;;;;;28.45;12.85;;;4.90;99.90;;;;;;5137258;28;20050;-72
2022/11/12 02:33:02;;;;;;;32.75;12.90;;;5.50;99.90;;;;;;5101203;28;20099;-71
2022/11/12 02:35:29;;;;;;;30.45;13.15;;;4.80;99.90;;;;;;5136741;28;20086;-71
2022/11/12 02:37:54;;;;;;;31.23;13.85;;;4.70;99.90;;;;;;5136421;28;20451;-71
2022/11/12 02:40:21;;;;;;;28.98;13.30;;;4.60;99.90;;;;;;5100923;28;20071;-71
2022/11/12 02:42:47;;;;;;;29.10;12.50;;;4.70;99.90;;;;;;5136392;28;20074;-72
2022/11/12 02:45:13;;;;;;;29.30;12.23;;;4.70;99.90;;;;;;5118259;28;20094;-72
2022/11/12 02:47:39;;;;;;;30.95;13.25;;;4.80;99.90;;;;;;5136418;28;20406;-72
2022/11/12 02:50:05;;;;;;;29.67;13.25;;;4.50;99.90;;;;;;5137378;28;20042;-73
2022/11/12 02:52:31;;;;;;;30.05;12.93;;;4.50;99.90;;;;;;5136949;28;20047;-76
2022/11/12 02:54:57;;;;;;;31.90;12.52;;;4.50;99.90;;;;;;5102068;28;20073;-72
2022/11/12 02:57:23;;;;;;;31.50;12.68;;;4.50;99.90;;;;;;5119069;28;20092;-72
2022/11/12 02:59:49;;;;;;;36.35;13.32;;;4.50;99.90;;;;;;5136627;28;20047;-71
2022/11/12 03:02:15;;;;;;;32.58;12.45;;;4.50;99.90;;;;;;5136211;28;20471;-73
2022/11/12 03:04:40;;;;;;;34.28;13.32;;;5.10;99.90;;;;;;5135786;28;20047;-72
2022/11/12 03:07:06;;;;;;;30.23;12.13;;;4.40;99.90;;;;;;5135184;28;20039;-72
2022/11/12 03:09:32;;;;;;;30.80;13.02;;;4.40;99.90;;;;;;5135446;28;20051;-73
2022/11/12 03:11:58;;;;;;;26.50;12.73;;;4.30;99.90;;;;;;5117637;28;20043;-73
2022/11/12 03:14:24;;;;;;;28.48;11.95;;;4.40;99.90;;;;;;5118016;28;20039;-72
2022/11/12 03:16:50;;;;;;;30.67;13.07;;;4.40;99.90;;;;;;5075866;27;1125379;-72
2022/11/12 03:19:16;;;;;;;28.30;12.45;;;4.30;99.90;;;;;;5136666;27;20421;-73
2022/11/12 03:21:41;;;;;;;27.85;12.38;;;4.40;99.90;;;;;;5135499;27;20396;-75
2022/11/12 03:24:07;;;;;;;28.35;13.20;;;4.30;99.90;;;;;;5136296;27;20039;-75
2022/11/12 03:26:33;;;;;;;33.90;12.82;;;4.30;99.90;;;;;;5118100;27;20384;-72
2022/11/12 03:28:58;;;;;;;33.75;13.90;;;4.30;99.90;;;;;;5135262;27;20046;-72
2022/11/12 03:31:24;;;;;;;35.80;13.68;;;4.40;99.90;;;;;;5135318;27;20503;-72
2022/11/12 03:33:50;;;;;;;31.88;13.60;;;4.30;99.90;;;;;;5135267;27;20495;-73
2022/11/12 03:36:16;;;;;;;27.58;12.52;;;4.50;99.90;;;;;;5116747;27;20092;-72
2022/11/12 03:38:41;;;;;;;31.00;12.68;;;4.30;99.90;;;;;;5136059;27;20126;-72
2022/11/12 03:41:07;;;;;;;27.25;11.85;;;4.50;99.90;;;;;;5135090;27;20467;-72
2022/11/12 03:43:33;;;;;;;26.98;11.63;;;4.60;99.90;;;;;;5135459;27;20050;-72
2022/11/12 03:45:58;;;;;;;31.65;11.75;;;4.90;99.90;;;;;;5099513;27;20054;-72
2022/11/12 03:48:27;;;;;;;25.02;11.60;;;4.10;99.90;;;;;;5100399;27;20402;-71
2022/11/12 03:50:57;;;;;;;31.02;12.57;;;4.10;99.90;;;;;;5134658;27;20046;-72
2022/11/12 03:53:23;;;;;;;25.70;11.85;;;4.20;99.90;;;;;;5134390;27;20042;-72
2022/11/12 03:55:49;;;;;;;27.97;12.20;;;4.20;99.90;;;;;;5099320;27;20108;-72
2022/11/12 03:58:15;;;;;;;30.50;12.23;;;4.10;99.90;;;;;;5134573;27;20079;-73
2022/11/12 04:00:40;;;;;;;29.77;11.73;;;3.90;99.90;;;;;;5116050;27;20046;-71
2022/11/12 04:03:06;;;;;;;26.42;11.80;;;4.20;99.90;;;;;;5134866;27;20419;-74
2022/11/12 04:08:35;;;;;;;26.55;11.32;;;4.10;99.90;;;;;;5116811;27;20134;-74
2022/11/12 04:11:03;;;;;;;21.77;10.63;;;4.10;99.90;;;;;;5134285;27;20054;-72
2022/11/12 04:13:29;;;;;;;23.45;11.45;;;4.20;99.90;;;;;;5115746;27;20051;-73
2022/11/12 04:21:49;;;;;;;23.47;10.83;;;4.30;99.90;;;;;;5115798;27;20043;-75
2022/11/12 04:27:20;;;;;;;25.05;10.65;;;4.00;99.90;;;;;;5134090;27;20054;-71
2022/11/12 04:32:34;;;;;;;24.48;10.43;;;4.40;99.90;;;;;;5134447;27;20055;-74
2022/11/12 04:35:00;;;;;;;23.70;10.15;;;3.80;99.90;;;;;;5098714;27;20046;-73
2022/11/12 04:37:42;;;;;;;22.80;9.82;;;3.80;99.90;;;;;;5133818;27;20039;-72
2022/11/12 04:45:46;;;;;;;23.35;10.43;;;4.20;99.90;;;;;;5134185;28;20098;-73
2022/11/12 04:48:12;;;;;;;25.05;10.27;;;4.40;99.90;;;;;;5133675;28;20091;-75
2022/11/12 04:50:39;;;;;;;22.35;9.57;;;4.10;99.90;;;;;;5115291;28;20475;-72
2022/11/12 04:53:05;;;;;;;22.48;9.50;;;3.80;99.90;;;;;;5098627;28;20431;-73
2022/11/12 04:55:31;;;;;;;27.63;10.00;;;4.10;99.90;;;;;;5132377;28;20039;-73
2022/11/12 04:57:57;;;;;;;21.83;9.57;;;3.70;99.90;;;;;;5133695;28;20047;-73
2022/11/12 05:00:23;;;;;;;20.83;9.73;;;3.70;99.90;;;;;;5098496;28;20384;-72
2022/11/12 05:02:49;;;;;;;22.85;9.95;;;3.70;99.90;;;;;;5115239;28;20055;-71
2022/11/12 05:05:15;;;;;;;25.80;10.75;;;3.80;99.90;;;;;;5133553;28;20043;-72
2022/11/12 05:07:41;;;;;;;20.65;9.23;;;4.10;99.90;;;;;;5133350;28;20135;-71
2022/11/12 05:10:07;;;;;;;23.90;10.30;;;3.70;99.90;;;;;;5115291;28;20074;-72
2022/11/12 05:12:33;;;;;;;24.45;9.63;;;3.60;99.90;;;;;;5115191;28;20063;-72
2022/11/12 05:14:59;;;;;;;22.40;9.82;;;3.50;99.90;;;;;;5133332;28;20097;-73
2022/11/12 05:17:25;;;;;;;26.27;10.80;;;3.60;99.90;;;;;;5132542;28;20384;-73
2022/11/12 05:19:50;;;;;;;22.73;10.50;;;3.70;99.90;;;;;;5133349;28;20054;-72
2022/11/12 05:22:16;;;;;;;19.70;9.60;;;3.70;99.90;;;;;;5098957;28;20081;-72
2022/11/12 05:24:43;;;;;;;23.05;10.27;;;3.60;99.90;;;;;;5133242;28;20043;-74
2022/11/12 05:27:12;;;;;;;18.55;9.88;;;3.40;99.90;;;;;;5133791;28;20043;-73
2022/11/12 05:29:37;;;;;;;22.42;9.65;;;3.60;99.90;;;;;;5115179;28;20039;-75
2022/11/12 05:32:07;;;;;;;22.50;10.50;;;3.50;99.90;;;;;;5134150;28;20130;-76
2022/11/12 05:34:33;;;;;;;20.80;9.63;;;3.50;99.90;;;;;;5133280;28;20059;-73
2022/11/12 05:37:00;;;;;;;24.50;10.18;;;3.60;99.90;;;;;;5115226;28;20132;-73
2022/11/12 05:39:26;;;;;;;23.08;9.18;;;3.60;99.90;;;;;;5115371;27;20449;-73
2022/11/12 05:41:52;;;;;;;22.58;9.27;;;3.40;99.90;;;;;;5101086;27;20047;-73
2022/11/12 05:44:17;;;;;;;41.03;10.65;;;3.40;99.90;;;;;;5137242;27;20202;-73
2022/11/12 05:46:44;;;;;;;42.10;10.15;;;3.40;99.90;;;;;;5119204;27;20095;-73
2022/11/12 05:49:10;;;;;;;62.15;11.18;;;3.50;99.90;;;;;;5136868;27;20395;-74
2022/11/12 05:51:36;;;;;;;35.83;11.02;;;3.50;99.90;;;;;;5101529;27;20035;-73
2022/11/12 05:54:01;;;;;;;28.02;10.60;;;3.40;99.90;;;;;;5136761;27;20047;-74
2022/11/12 05:56:27;;;;;;;29.52;11.15;;;3.50;99.90;;;;;;5118046;27;20047;-73
2022/11/12 05:58:53;;;;;;;24.10;10.07;;;3.40;99.90;;;;;;5118704;27;20463;-73
2022/11/12 06:01:19;;;;;;;24.67;10.52;;;3.40;99.90;;;;;;5136727;27;20143;-73
2022/11/12 06:03:45;;;;;;;22.55;10.38;;;3.50;99.90;;;;;;5136492;27;20455;-74
2022/11/12 06:06:10;;;;;;;25.45;10.57;;;3.40;99.90;;;;;;5084538;27;20074;-73
2022/11/12 06:08:36;;;;;;;22.58;10.20;;;3.50;99.90;;;;;;5117951;27;20047;-74
2022/11/12 06:11:02;;;;;;;27.55;11.55;;;3.60;99.90;;;;;;5136386;27;20047;-77
2022/11/12 06:13:28;;;;;;;32.50;14.45;;;3.50;99.90;;;;;;5136134;27;20444;-76
2022/11/12 06:15:54;;;;;;;25.42;11.95;;;3.40;99.90;;;;;;5101244;27;20051;-73
2022/11/12 06:18:21;;;;;;;23.23;9.57;;;3.30;99.90;;;;;;5136184;27;20103;-74
2022/11/12 06:21:18;;;;;;;20.13;9.32;;;3.40;99.90;;;;;;5136303;27;20070;-76
2022/11/12 06:23:33;;;;;;;20.05;8.95;;;3.10;99.90;;;;;;5136096;27;20047;-74
2022/11/12 06:25:58;;;;;;;20.67;9.48;;;3.30;99.90;;;;;;5101086;27;20081;-73
2022/11/12 06:28:24;;;;;;;22.55;9.93;;;3.40;99.90;;;;;;5136147;27;20046;-75
2022/11/12 06:30:50;;;;;;;22.83;9.55;;;3.20;99.90;;;;;;5135622;27;20394;-73
2022/11/12 06:33:16;;;;;;;22.30;9.15;;;3.20;99.90;;;;;;5136113;27;20043;-74
2022/11/12 06:35:41;;;;;;;21.33;9.93;;;3.00;99.90;;;;;;5117723;27;20469;-73
2022/11/12 06:38:07;;;;;;;26.20;9.73;;;3.20;99.90;;;;;;5117601;27;20447;-74
2022/11/12 06:40:34;;;;;;;23.35;9.77;;;3.70;99.90;;;;;;5136423;27;20116;-74
2022/11/12 06:42:59;;;;;;;21.13;9.05;;;3.10;99.90;;;;;;5117289;27;20054;-73
2022/11/12 06:45:25;;;;;;;21.92;10.30;;;3.40;99.90;;;;;;5135764;27;20038;-74
2022/11/12 06:47:51;;;;;;;20.63;8.68;;;3.20;99.90;;;;;;5117164;27;20205;-73
2022/11/12 06:50:17;;;;;;;21.85;9.07;;;3.20;99.90;;;;;;5117466;27;20091;-73
2022/11/12 06:52:42;;;;;;;25.95;9.80;;;3.10;99.90;;;;;;5116607;27;20379;-74
2022/11/12 06:55:08;;;;;;;24.02;9.25;;;3.10;99.90;;;;;;5117458;27;20046;-74
2022/11/12 06:57:34;;;;;;;18.45;9.18;;;3.10;99.90;;;;;;5135561;27;20096;-74
2022/11/12 07:00:00;;;;;;;21.45;9.57;;;3.00;99.90;;;;;;5135985;27;20371;-76
2022/11/12 07:02:25;;;;;;;23.05;9.57;;;3.50;99.90;;;;;;5100173;27;20049;-73
2022/11/12 07:04:51;;;;;;;23.00;9.48;;;3.10;99.90;;;;;;5117771;27;20397;-73
2022/11/12 07:07:17;;;;;;;21.05;9.93;;;3.70;99.90;;;;;;5135924;27;20035;-73
2022/11/12 07:09:43;;;;;;;19.65;9.32;;;3.00;99.90;;;;;;5100920;27;20034;-73
2022/11/12 07:12:08;;;;;;;24.73;9.40;;;3.00;99.90;;;;;;5135285;27;20043;-73
2022/11/12 07:14:34;;;;;;;26.33;10.18;;;3.10;99.90;;;;;;5116933;27;20038;-74
2022/11/12 07:17:00;;;;;;;28.45;10.05;;;3.10;99.90;;;;;;5134965;27;20054;-73
2022/11/12 07:19:26;;;;;;;21.52;10.23;;;3.00;99.90;;;;;;5135065;27;20052;-73
2022/11/12 07:21:51;;;;;;;23.17;10.52;;;3.20;99.90;;;;;;5100168;27;20047;-74
2022/11/12 07:24:17;;;;;;;22.75;10.30;;;3.70;99.90;;;;;;5135525;27;20046;-72
2022/11/12 07:26:43;;;;;;;29.02;11.25;;;3.50;99.90;;;;;;5116774;27;20042;-75
2022/11/12 07:29:08;;;;;;;23.42;9.95;;;3.20;99.90;;;;;;5116974;27;20043;-72
2022/11/12 07:31:34;;;;;;;24.85;10.57;;;3.60;99.90;;;;;;5134719;27;20068;-72
2022/11/12 07:34:00;;;;;;;25.02;11.88;;;3.30;99.90;;;;;;5116644;27;20327;-74
2022/11/12 07:36:26;;;;;;;33.10;11.98;;;3.30;99.90;;;;;;5116449;27;20475;-74
2022/11/12 07:38:52;;;;;;;23.15;10.93;;;3.60;99.90;;;;;;5134852;27;20070;-73
2022/11/12 07:41:21;;;;;;;24.30;10.40;;;3.50;99.90;;;;;;5116488;27;20047;-73
2022/11/12 07:43:49;;;;;;;29.65;12.88;;;3.50;99.90;;;;;;5134680;27;20043;-74
2022/11/12 07:46:20;;;;;;;30.35;13.68;;;3.60;99.90;;;;;;5134650;27;20131;-74
2022/11/12 07:48:46;;;;;;;33.80;13.80;;;3.60;99.90;;;;;;5116929;27;20043;-74
2022/11/12 07:51:15;;;;;;;29.63;11.63;;;3.90;99.90;;;;;;5115982;27;20079;-73
2022/11/12 07:53:41;;;;;;;28.13;12.25;;;3.70;99.90;;;;;;5134408;27;20047;-75
2022/11/12 07:56:10;;;;;;;26.73;12.02;;;4.40;99.90;;;;;;5134390;27;20050;-75
2022/11/12 07:58:36;;;;;;;28.50;12.13;;;3.60;99.90;;;;;;5115566;27;20156;-73
2022/11/12 08:01:08;;;;;;;26.23;10.98;;;3.90;99.90;;;;;;5099845;27;20045;-73
2022/11/12 08:03:34;;;;;;;27.52;11.48;;;4.00;99.90;;;;;;5115519;27;20043;-75
2022/11/12 08:06:00;;;;;;;24.38;11.13;;;4.00;99.90;;;;;;5134680;27;20039;-72
2022/11/12 08:08:26;;;;;;;23.50;11.00;;;4.20;99.90;;;;;;5115678;27;20043;-73
2022/11/12 08:10:56;;;;;;;27.98;11.98;;;4.90;99.90;;;;;;5133724;27;20043;-72
2022/11/12 08:13:22;;;;;;;26.30;11.07;;;4.30;99.90;;;;;;5116067;27;20096;-72
2022/11/12 08:15:48;;;;;;;26.37;12.20;;;4.30;99.90;;;;;;5115870;27;20253;-72
2022/11/12 08:18:14;;;;;;;74.88;39.45;;;4.40;99.90;;;;;;5133396;27;20094;-72
2022/11/12 08:20:39;;;;;;;52.28;27.73;;;4.50;99.90;;;;;;5098966;27;20047;-73
2022/11/12 08:23:05;;;;;;;31.98;15.43;;;4.50;99.90;;;;;;5115377;27;20054;-73
2022/11/12 08:25:31;;;;;;;30.92;14.77;;;4.90;99.90;;;;;;5099507;27;20047;-75
2022/11/12 08:27:58;;;;;;;28.58;14.23;;;4.80;99.90;;;;;;5133558;27;20436;-75
2022/11/12 08:30:25;;;;;;;30.52;13.65;;;4.80;99.90;;;;;;5133518;27;20436;-76
2022/11/12 08:33:02;;;;;;;29.83;13.82;;;4.80;99.90;;;;;;5133923;27;20131;-72
2022/11/12 08:35:29;;;;;;;27.58;13.13;;;4.90;99.90;;;;;;5134020;27;20047;-73
2022/11/12 08:38:03;;;;;;;27.65;12.55;;;5.00;99.90;;;;;;5134110;27;20039;-72
2022/11/12 08:40:31;;;;;;;27.52;13.25;;;5.00;99.90;;;;;;5133886;27;20054;-72
2022/11/12 08:43:03;;;;;;;29.60;13.50;;;5.20;99.90;;;;;;5115671;28;20043;-72
2022/11/12 08:45:31;;;;;;;23.20;13.30;;;5.30;99.90;;;;;;5116469;28;20093;-72
2022/11/12 08:48:02;;;;;;;28.02;13.10;;;5.30;99.90;;;;;;5098473;28;20053;-75
2022/11/12 08:50:29;;;;;;;32.08;13.85;;;5.50;99.90;;;;;;5134231;28;20469;-73
2022/11/12 08:53:00;;;;;;;25.77;13.18;;;6.00;99.90;;;;;;5133819;28;20055;-73
2022/11/12 08:55:26;;;;;;;29.67;13.25;;;5.60;99.90;;;;;;5115319;28;20081;-74
2022/11/12 08:57:52;;;;;;;30.93;14.93;;;5.80;99.90;;;;;;5133774;28;20088;-73
2022/11/12 09:00:18;;;;;;;29.90;13.75;;;6.10;99.90;;;;;;5097969;28;20501;-72
2022/11/12 09:02:44;;;;;;;26.13;12.82;;;5.90;99.90;;;;;;5115526;28;20087;-74
2022/11/12 09:05:10;;;;;;;24.98;13.32;;;6.00;99.90;;;;;;5115527;28;20050;-73
2022/11/12 09:07:35;;;;;;;28.17;14.63;;;6.10;99.90;;;;;;5098878;28;20059;-72
2022/11/12 09:10:01;;;;;;;29.13;13.68;;;6.20;99.90;;;;;;5115327;28;20156;-72
2022/11/12 09:12:27;;;;;;;24.85;12.88;;;6.20;99.90;;;;;;5098452;28;20467;-77
2022/11/12 09:14:53;;;;;;;29.35;14.18;;;6.20;99.90;;;;;;5134067;27;20399;-72
2022/11/12 09:17:18;;;;;;;26.20;13.02;;;6.40;99.90;;;;;;5137059;27;20050;-73
2022/11/12 09:19:44;;;;;;;26.40;13.40;;;6.50;99.90;;;;;;5137511;27;20047;-74
2022/11/12 09:22:10;;;;;;;28.05;14.20;;;6.50;99.90;;;;;;5102921;27;20047;-74
2022/11/12 09:24:36;;;;;;;33.15;13.93;;;6.50;99.90;;;;;;5137855;27;20568;-73
2022/11/12 09:27:01;;;;;;;28.42;14.80;;;6.60;99.90;;;;;;5137311;27;20153;-74
2022/11/12 09:29:27;;;;;;;26.85;13.45;;;6.60;99.90;;;;;;5119639;27;20053;-75
2022/11/12 09:31:53;;;;;;;25.80;14.77;;;6.70;99.90;;;;;;5102045;27;20050;-74
2022/11/12 09:34:19;;;;;;;29.48;14.45;;;6.80;99.90;;;;;;5137535;27;20457;-73
2022/11/12 09:36:44;;;;;;;27.50;14.73;;;6.80;99.90;;;;;;5118674;27;20039;-74
2022/11/12 09:39:10;;;;;;;31.23;14.82;;;6.80;99.90;;;;;;5137707;27;20105;-73
2022/11/12 09:41:38;;;;;;;28.23;14.25;;;7.00;99.90;;;;;;5101844;27;20456;-72
2022/11/12 09:44:16;;;;;;;28.58;14.73;;;6.90;99.90;;;;;;5137050;27;20043;-73
2022/11/12 09:46:46;;;;;;;24.58;14.15;;;7.00;99.90;;;;;;5137700;27;20475;-72
2022/11/12 09:49:21;;;;;;;28.65;14.40;;;7.10;99.90;;;;;;5136994;27;20479;-73
2022/11/12 09:51:52;;;;;;;29.27;15.15;;;7.10;99.90;;;;;;5118639;27;20047;-75
2022/11/12 09:54:21;;;;;;;30.52;15.77;;;7.20;99.90;;;;;;5136665;27;20522;-74
2022/11/12 09:56:48;;;;;;;29.30;14.85;;;7.20;99.90;;;;;;5136724;27;20051;-73
2022/11/12 09:59:14;;;;;;;;;;;7.30;99.90;;;;;;5118951;27;20414;-73
2022/11/12 10:02:02;;;;;;;27.75;15.45;;;7.30;99.90;;;;;;5136838;27;19919;-74
2022/11/12 10:04:55;;;;;;;25.05;15.32;;;7.40;99.90;;;;;;5118441;27;20126;-72
2022/11/12 10:07:42;;;;;;;27.52;14.77;;;7.60;99.90;;;;;;5118131;27;20046;-73
2022/11/12 10:10:11;;;;;;;;;;;7.70;99.90;;;;;;5136811;27;20517;-73
2022/11/12 10:13:01;;;;;;;25.77;14.25;;;7.80;99.90;;;;;;5101401;27;20450;-72
2022/11/12 10:18:34;;;;;;;27.35;14.95;;;7.90;99.90;;;;;;5136508;27;20055;-78
2022/11/12 10:21:23;;;;;;;25.77;14.60;;;8.00;99.90;;;;;;5136655;27;20058;-73
2022/11/12 10:23:52;;;;;;;29.75;14.48;;;8.10;99.90;;;;;;5117876;27;20134;-74
2022/11/12 10:26:24;;;;;;;25.75;14.98;;;8.10;99.90;;;;;;5101002;27;20062;-76
2022/11/12 10:29:06;;;;;;;28.08;14.95;;;8.30;99.90;;;;;;5136871;27;20046;-75
2022/11/12 10:31:32;;;;;;;32.08;14.38;;;8.30;99.90;;;;;;5136061;27;20047;-75
2022/11/12 10:34:08;;;;;;;24.45;13.50;;;8.40;99.90;;;;;;5118416;27;20051;-74
2022/11/12 10:36:37;;;;;;;26.58;14.40;;;8.30;99.90;;;;;;5136535;27;20188;-74
2022/11/12 10:39:03;;;;;;;26.50;15.02;;;8.50;99.90;;;;;;5117732;27;20043;-73
2022/11/12 10:41:31;;;;;;;25.15;14.82;;;8.50;99.90;;;;;;5117075;27;20483;-72
2022/11/12 10:44:02;;;;;;;26.02;14.25;;;8.60;99.90;;;;;;5100543;27;20059;-74
2022/11/12 10:46:34;;;;;;;28.75;15.48;;;8.60;99.90;;;;;;5100264;27;20047;-74
2022/11/12 10:49:07;;;;;;;26.70;13.35;;;8.70;99.90;;;;;;5117256;27;20085;-74
2022/11/12 10:51:37;;;;;;;24.55;14.07;;;8.80;99.90;;;;;;5136754;27;20156;-73
2022/11/12 10:54:35;;;;;;;22.30;12.68;;;8.90;99.90;;;;;;5117350;27;20048;-73
2022/11/12 10:57:24;;;;;;;22.30;13.05;;;9.00;99.90;;;;;;5135520;27;20043;-73
2022/11/12 11:00:11;;;;;;;24.42;13.65;;;9.10;99.90;;;;;;5136077;27;20096;-74
2022/11/12 11:02:55;;;;;;;21.08;11.88;;;9.20;99.90;;;;;;5117644;27;20054;-73
2022/11/12 11:05:33;;;;;;;20.33;12.25;;;9.30;99.90;;;;;;5135294;27;20039;-73
2022/11/12 11:08:00;;;;;;;20.98;12.60;;;9.30;99.90;;;;;;5117353;27;20172;-73
2022/11/12 11:10:34;;;;;;;22.00;12.38;;;9.40;99.90;;;;;;5135302;27;20503;-73
2022/11/12 11:13:15;;;;;;;22.92;12.10;;;9.50;99.90;;;;;;5135424;27;20047;-74
2022/11/12 11:15:57;;;;;;;21.85;12.23;;;9.60;99.90;;;;;;5135833;27;20043;-74
2022/11/12 11:18:24;;;;;;;22.50;11.65;;;9.60;99.90;;;;;;5116710;27;20069;-76
2022/11/12 11:21:01;;;;;;;25.67;12.23;;;9.60;99.90;;;;;;5135004;27;20134;-81
2022/11/12 11:23:47;;;;;;;23.80;12.10;;;9.70;99.90;;;;;;5135188;27;20043;-74
2022/11/12 11:26:42;;;;;;;21.27;11.45;;;9.80;99.90;;;;;;5135229;27;20192;-74
2022/11/12 11:29:25;;;;;;;20.17;11.52;;;9.90;99.90;;;;;;5117045;27;20134;-74
2022/11/12 11:32:18;;;;;;;20.95;11.52;;;10.20;99.90;;;;;;5135590;27;20117;-75
2022/11/12 11:35:18;;;;;;;20.25;11.82;;;10.20;99.90;;;;;;5135704;27;20375;-75
2022/11/12 11:38:02;;;;;;;19.77;11.38;;;10.20;99.90;;;;;;5134046;27;20039;-74
2022/11/12 11:40:37;;;;;;;22.73;11.80;;;10.20;99.90;;;;;;5116460;27;20248;-74
2022/11/12 11:43:33;;;;;;;23.00;12.05;;;10.20;99.90;;;;;;5116493;27;20049;-75
2022/11/12 11:46:30;;;;;;;23.65;12.35;;;10.40;99.90;;;;;;5134770;27;20050;-74
2022/11/12 11:49:17;;;;;;;25.70;12.32;;;10.50;99.90;;;;;;5099841;27;20054;-72
2022/11/12 11:52:13;;;;;;;22.35;11.38;;;10.50;99.90;;;;;;5099487;27;20101;-72
2022/11/12 11:54:45;;;;;;;21.30;11.20;;;10.50;99.90;;;;;;5116731;27;20043;-74
2022/11/12 11:57:15;;;;;;;19.67;11.30;;;10.60;99.90;;;;;;5134684;27;20043;-74
2022/11/12 12:00:21;;;;;;;20.70;11.38;;;10.70;99.90;;;;;;5100323;27;20055;-74
2022/11/12 12:03:09;;;;;;;27.17;11.20;;;10.80;99.90;;;;;;5134874;27;20383;-75
2022/11/12 12:05:41;;;;;;;20.50;11.20;;;10.80;99.90;;;;;;5116068;27;20062;-73
2022/11/12 12:08:40;;;;;;;20.45;11.07;;;10.90;99.90;;;;;;5115847;27;20050;-76
2022/11/12 12:11:16;;;;;;;21.13;11.35;;;10.90;99.90;;;;;;5115825;27;20046;-73
2022/11/12 12:14:05;;;;;;;22.10;11.10;;;10.90;99.90;;;;;;5098767;27;20047;-74
2022/11/12 12:16:58;;;;;;;18.08;10.75;;;11.00;99.90;;;;;;5116114;27;20150;-77
2022/11/12 12:20:01;;;;;;;22.85;11.43;;;11.00;99.90;;;;;;5133745;27;20517;-74
2022/11/12 12:22:40;;;;;;;21.33;11.15;;;11.10;99.90;;;;;;5115029;27;20095;-81
2022/11/12 12:25:34;;;;;;;21.00;12.48;;;11.20;99.90;;;;;;5115874;27;20130;-75
2022/11/12 12:28:34;;;;;;;24.17;11.40;;;11.20;99.90;;;;;;5134342;27;20469;-74
2022/11/12 12:31:07;;;;;;;20.77;12.45;;;11.30;99.90;;;;;;5116033;27;20095;-74
2022/11/12 12:34:01;;;;;;;21.63;12.52;;;11.30;99.90;;;;;;5116104;27;20141;-75
2022/11/12 12:36:31;;;;;;;25.38;11.60;;;11.40;99.90;;;;;;5112167;27;20051;-74
2022/11/12 12:39:15;;;;;;;24.65;11.75;;;11.40;99.90;;;;;;5133863;27;20142;-75
2022/11/12 12:42:02;;;;;;;20.17;11.55;;;11.50;99.90;;;;;;5133711;27;20063;-74
2022/11/12 12:47:14;;;;;;;24.42;12.38;;;11.60;99.90;;;;;;5134700;28;19923;-74
2022/11/12 12:49:41;;;;;;;31.17;12.90;;;11.60;99.90;;;;;;5135413;27;20047;-74
2022/11/12 12:52:12;;;;;;;21.75;13.18;;;11.70;99.90;;;;;;5119877;27;20174;-74
2022/11/12 12:54:37;;;;;;;22.08;12.40;;;11.70;99.90;;;;;;5119452;27;20066;-73
2022/11/12 12:57:04;;;;;;;27.77;13.80;;;11.80;99.90;;;;;;5102582;27;20047;-74
2022/11/12 12:59:30;;;;;;;20.52;12.90;;;11.70;99.90;;;;;;5086510;27;20417;-74
2022/11/12 13:02:01;;;;;;;20.25;12.90;;;11.70;99.90;;;;;;5137675;27;20043;-75
2022/11/12 13:05:05;;;;;;;19.65;11.18;;;11.70;99.90;;;;;;5102825;27;20321;-75
2022/11/12 13:07:59;;;;;;;19.95;10.80;;;11.70;99.90;;;;;;5034112;28;20045;-76
2022/11/12 13:10:52;;;;;;;22.52;12.40;;;11.80;99.90;;;;;;5032365;28;20053;-74
2022/11/12 13:13:18;;;;;;;23.00;10.82;;;;;;;;;;5119449;27;20085;-76
2022/11/12 13:15:55;;;;;;;20.55;11.38;;;11.80;99.90;;;;;;5137699;27;20070;-74
2022/11/12 13:18:39;;;;;;;23.45;12.65;;;11.80;99.90;;;;;;5119621;27;20108;-75
2022/11/12 13:21:12;;;;;;;18.98;10.77;;;11.80;99.90;;;;;;5119576;27;20051;-75